Airfield :







YOU CAN JOIN US ON...

 
LOGIN :

Register | Disclaimer

   EN    FR    IT 

 









Legend :    VFR   Marginal VFR   IFR   Intensive IFR   Very Intensive IFR
Visi :
Ceiling :
>= 8 km
>= 3000ft
5 to 8 km
1000 to 3000 ft
1500m to 5 km
500 to 1000 ft
800 to 1500m
200 to 500 ft
< 800m
< 200 ft
Symbols :   Thunderstorms  Fog  Heavy snow  Heavy precipitations  Wind > 20 kt







- Airport Elevation : 83 ft


KBHB - Hancock County-Bar Harbor

CURRENT METAR :
  • 250411Z AUTO 35005KT 10SM OVC015 04/02 A2983 RMK AO2

EXPIRED METARs :
  • 250356Z AUTO 36005KT 10SM OVC013 04/03 A2982 RMK AO2 SLP103 T00440028
  • 250256Z AUTO 33005KT 10SM BKN013 OVC020 04/03 A2980 RMK AO2 SLP097 T00440033 51012
  • 250235Z AUTO 33005KT 10SM FEW011 BKN018 OVC085 04/03 A2980 RMK AO2
  • 250156Z AUTO 34003KT 10SM FEW012 OVC070 04/03 A2979 RMK AO2 SLP094 T00440033

TAF KBHB
Valid from the 25 at 04:00 until the 26 at 00:00 UTC


250335Z 2504/2524 34008KT P6SM BKN015 OVC035
FM250600 36008KT P6SM BKN050
FM251800 25008KT P6SM SCT050
KZBW FIR / North America



MET'MAP, your aeronautical weather chart ! - Copyright ORBIFLY December 2007 - Disclaimer

ORBIFLY MET'MAP TEAM :

Programming & Development : Alexandra Zaïnal
Concept & Development : Baudouin d'Aumeries
Co-Development & Prog : Marc-Olivier Méhu
Technical & hardware support : Manuel Goepfert

Contact : metmap@orbifly.com




SOURCES & CREDITS :

   NOAA